Time;durP1;ratioP1;P1;durP2;ratioP2;P2;SDS_P1;SDS_P2;PMS_P1;PMS_P2;Temp;Humidity;BMP_temperature;BMP_pressure;BME280_temperature;BME280_humidity;BME280_pressure;Samples;Min_cycle;Max_cycle;Signal;HPM_P1;HPM_P2
2022/01/29 00:00:06;;;;;;;;;;;;;;;5.63;11.02;101094.78;5025994;28;19921;-62
2022/01/29 00:02:31;;;;;;;;;;;;;;;6.02;11.98;101117.81;5025489;28;20426;-61
2022/01/29 00:04:56;;;;;;;;;;;;;;;6.05;12.13;101114.47;5025232;28;20032;-63
2022/01/29 00:07:21;;;;;;;;;;;;;;;6.18;11.24;101095.97;5025278;28;19917;-62
2022/01/29 00:09:48;;;;;;;;;;;;;;;6.26;11.30;101086.72;5025542;28;19964;-62
2022/01/29 00:12:13;;;;;;;;;;;;;;;5.98;11.03;101056.34;5023992;28;19995;-62
2022/01/29 00:14:38;;;;;;;;;;;;;;;5.86;13.83;101055.22;5025156;28;21007;-63
2022/01/29 00:17:04;;;;;;;;;;;;;;;5.85;12.30;101043.25;5024799;28;19921;-63
2022/01/29 00:19:29;;;;;;;;;;;;;;;5.91;13.04;101039.09;5025534;28;20283;-60
2022/01/29 00:21:55;;;;;;;;;;;;;;;6.00;11.77;101029.09;5025923;28;20019;-62
2022/01/29 00:24:20;;;;;;;;;;;;;;;6.00;11.58;101014.63;5026385;28;19922;-62
2022/01/29 00:26:45;;;;;;;;;;;;;;;6.33;12.46;101002.41;5024715;28;20102;-61
2022/01/29 00:29:18;;;;;;;;;;;;;;;6.20;12.10;100981.72;5026035;28;19924;-63
2022/01/29 00:31:44;;;;;;;;;;;;;;;5.85;12.82;100947.81;5025301;28;19962;-62
2022/01/29 00:34:09;;;;;;;;;;;;;;;6.18;13.44;100941.59;5025565;28;20438;-62
2022/01/29 00:36:35;;;;;;;;;;;;;;;6.42;11.87;100926.63;5024486;28;19932;-62
2022/01/29 00:39:00;;;;;;;;;;;;;;;6.21;13.14;100877.69;5025266;28;19917;-62
2022/01/29 00:41:25;;;;;;;;;;;;;;;6.40;13.23;100853.25;5024622;28;19931;-62
2022/01/29 00:43:50;;;;;;;;;;;;;;;6.53;13.34;100832.13;5025039;28;19925;-62
2022/01/29 00:46:16;;;;;;;;;;;;;;;6.47;13.75;100791.06;5021564;28;20473;-62
2022/01/29 00:48:41;;;;;;;;;;;;;;;6.06;15.33;100752.97;5023715;28;19931;-61
2022/01/29 00:51:06;;;;;;;;;;;;;;;6.28;15.57;100728.56;5025879;28;19921;-63
2022/01/29 00:53:32;;;;;;;;;;;;;;;6.17;17.11;100710.50;5028705;28;20295;-63
2022/01/29 00:55:57;;;;;;;;;;;;;;;6.25;17.20;100687.59;5028288;28;19929;-60
2022/01/29 00:58:22;;;;;;;;;;;;;;;5.67;17.76;100667.16;5028100;28;20374;-62
2022/01/29 01:00:48;;;;;;;;;;;;;;;6.18;17.66;100658.50;5028460;28;20287;-62
2022/01/29 01:03:13;;;;;;;;;;;;;;;6.17;17.13;100638.88;5028734;28;20071;-62
2022/01/29 01:05:38;;;;;;;;;;;;;;;5.81;16.90;100613.66;5029045;28;19924;-61
2022/01/29 01:08:04;;;;;;;;;;;;;;;5.50;19.02;100597.06;5027964;28;19921;-62
2022/01/29 01:10:29;;;;;;;;;;;;;;;6.05;17.95;100596.09;5029599;28;20004;-62
2022/01/29 01:12:54;;;;;;;;;;;;;;;5.58;20.26;100595.44;5029100;28;20200;-62
2022/01/29 01:15:20;;;;;;;;;;;;;;;5.92;17.12;100583.13;5027708;28;19925;-62
2022/01/29 01:17:45;;;;;;;;;;;;;;;5.89;18.69;100577.97;5027812;28;19974;-60
2022/01/29 01:20:11;;;;;;;;;;;;;;;5.73;18.56;100580.34;5028612;28;19975;-60
2022/01/29 01:22:36;;;;;;;;;;;;;;;5.69;17.98;100586.25;5028771;28;19917;-62
2022/01/29 01:25:02;;;;;;;;;;;;;;;5.28;20.26;100585.66;5029058;28;19917;-62
2022/01/29 01:27:27;;;;;;;;;;;;;;;5.62;17.65;100599.78;5028193;28;19913;-62
2022/01/29 01:29:52;;;;;;;;;;;;;;;5.45;18.33;100590.19;5037157;28;19921;-62
2022/01/29 01:32:18;;;;;;;;;;;;;;;5.55;19.52;100610.75;5028321;28;19964;-61
2022/01/29 01:34:48;;;;;;;;;;;;;;;5.23;26.30;100629.00;5028864;28;19929;-62
2022/01/29 01:37:27;;;;;;;;;;;;;;;5.58;22.15;100651.69;5027873;28;20259;-62
2022/01/29 01:39:52;;;;;;;;;;;;;;;5.54;23.83;100667.78;5028834;28;19967;-62
2022/01/29 01:42:18;;;;;;;;;;;;;;;5.69;23.50;100675.69;5028764;28;19980;-62
2022/01/29 01:44:46;;;;;;;;;;;;;;;5.95;21.16;100673.53;5027377;28;19924;-62
2022/01/29 01:47:12;;;;;;;;;;;;;;;5.77;25.53;100676.69;5027595;28;19928;-61
2022/01/29 01:49:37;;;;;;;;;;;;;;;5.83;25.46;100684.41;5027452;28;20294;-62
2022/01/29 01:52:03;;;;;;;;;;;;;;;5.35;28.58;100674.31;5028427;28;19975;-62
2022/01/29 01:54:28;;;;;;;;;;;;;;;5.83;28.91;100694.66;5026744;28;19921;-62
2022/01/29 01:56:54;;;;;;;;;;;;;;;5.69;30.38;100696.16;5027098;28;19917;-62
2022/01/29 01:59:19;;;;;;;;;;;;;;;5.76;27.03;100697.09;5027160;28;19928;-62
2022/01/29 02:01:44;;;;;;;;;;;;;;;6.00;26.95;100697.50;5028071;28;19925;-61
2022/01/29 02:04:10;;;;;;;;;;;;;;;5.86;28.03;100684.47;5026893;28;20413;-63
2022/01/29 02:06:35;;;;;;;;;;;;;;;5.94;24.83;100686.28;5027679;28;20240;-61
2022/01/29 02:09:01;;;;;;;;;;;;;;;5.77;26.91;100684.34;5027108;28;19963;-62
2022/01/29 02:11:27;;;;;;;;;;;;;;;6.03;23.79;100678.78;5035572;28;19956;-62
2022/01/29 02:13:53;;;;;;;;;;;;;;;5.89;25.07;100678.53;5026785;28;19975;-62
2022/01/29 02:16:19;;;;;;;;;;;;;;;5.57;25.61;100665.31;5026708;28;20302;-61
2022/01/29 02:18:45;;;;;;;;;;;;;;;6.13;20.27;100682.28;5027321;28;20387;-61
2022/01/29 02:21:10;;;;;;;;;;;;;;;5.93;26.38;100674.31;5027815;28;20023;-63
2022/01/29 02:23:35;;;;;;;;;;;;;;;6.15;22.55;100663.56;5027829;28;19917;-61
2022/01/29 02:26:01;;;;;;;;;;;;;;;6.01;25.83;100663.41;5026940;28;19940;-61
2022/01/29 02:28:26;;;;;;;;;;;;;;;5.82;24.33;100654.59;5026526;28;19951;-62
2022/01/29 02:30:57;;;;;;;;;;;;;;;5.62;26.66;100640.66;5027612;28;20322;-60
2022/01/29 02:33:22;;;;;;;;;;;;;;;6.11;27.88;100643.91;5035839;28;19917;-62
2022/01/29 02:35:48;;;;;;;;;;;;;;;5.78;26.18;100629.81;5025328;28;20448;-62
2022/01/29 02:38:15;;;;;;;;;;;;;;;5.90;28.36;100648.72;5024333;28;19928;-63
2022/01/29 02:40:47;;;;;;;;;;;;;;;5.44;34.49;100624.22;5026058;28;19956;-63
2022/01/29 02:43:13;;;;;;;;;;;;;;;5.81;36.30;100645.19;5027348;28;20027;-63
2022/01/29 02:45:41;;;;;;;;;;;;;;;5.52;34.07;100636.25;5025542;28;20342;-62
2022/01/29 02:48:06;;;;;;;;;;;;;;;5.47;34.94;100637.88;5027604;28;19913;-62
2022/01/29 02:50:32;;;;;;;;;;;;;;;5.62;35.05;100656.00;5026629;28;19927;-62
2022/01/29 02:52:57;;;;;;;;;;;;;;;5.39;37.28;100656.50;5027818;28;19921;-62
2022/01/29 02:55:24;;;;;;;;;;;;;;;5.77;34.16;100660.47;5026886;28;19921;-62
2022/01/29 02:57:49;;;;;;;;;;;;;;;5.74;36.05;100671.50;5024967;28;20387;-61
2022/01/29 03:00:14;;;;;;;;;;;;;;;5.79;35.33;100674.13;5024571;28;19971;-62
2022/01/29 03:02:40;;;;;;;;;;;;;;;5.79;35.62;100677.56;5026749;28;20008;-61
2022/01/29 03:05:05;;;;;;;;;;;;;;;5.93;33.85;100689.66;5025756;28;20092;-61
2022/01/29 03:07:31;;;;;;;;;;;;;;;5.62;32.62;100671.34;5026802;28;19959;-62
2022/01/29 03:09:56;;;;;;;;;;;;;;;6.05;37.96;100682.22;5026005;28;20457;-62
2022/01/29 03:12:21;;;;;;;;;;;;;;;5.73;38.41;100677.47;5026552;28;19944;-62
2022/01/29 03:14:47;;;;;;;;;;;;;;;5.99;35.88;100675.28;5025105;28;20433;-62
2022/01/29 03:17:12;;;;;;;;;;;;;;;5.97;38.22;100678.69;5027091;28;20295;-62
2022/01/29 03:19:37;;;;;;;;;;;;;;;5.93;36.74;100674.31;5025411;28;19929;-62
2022/01/29 03:22:03;;;;;;;;;;;;;;;5.97;36.35;100656.50;5027288;28;19913;-62
2022/01/29 03:24:28;;;;;;;;;;;;;;;6.02;35.13;100648.91;5026131;28;19924;-62
2022/01/29 03:26:53;;;;;;;;;;;;;;;6.02;33.53;100633.56;5026690;28;20362;-62
2022/01/29 03:29:19;;;;;;;;;;;;;;;6.10;36.81;100626.84;5025970;28;20012;-61
2022/01/29 03:31:44;;;;;;;;;;;;;;;5.75;41.34;100639.16;5026230;28;19921;-60
2022/01/29 03:34:09;;;;;;;;;;;;;;;6.02;43.48;100639.56;5027067;28;19963;-62
2022/01/29 03:36:35;;;;;;;;;;;;;;;5.52;43.10;100636.25;5026328;28;20016;-62
2022/01/29 03:39:01;;;;;;;;;;;;;;;6.03;44.27;100663.44;5025306;28;20309;-62
2022/01/29 03:41:26;;;;;;;;;;;;;;;6.19;41.73;100667.91;5023975;28;20329;-62
2022/01/29 03:43:54;;;;;;;;;;;;;;;5.93;45.28;100658.97;5026470;28;20310;-62
2022/01/29 03:46:19;;;;;;;;;;;;;;;5.96;44.48;100662.47;5025242;28;20370;-60
2022/01/29 03:48:44;;;;;;;;;;;;;;;6.16;44.31;100661.88;5025738;28;19966;-61
2022/01/29 03:51:10;;;;;;;;;;;;;;;5.66;49.00;100650.97;5026061;28;19955;-61
2022/01/29 03:53:35;;;;;;;;;;;;;;;6.02;51.94;100669.34;5025555;28;20366;-62
2022/01/29 03:56:00;;;;;;;;;;;;;;;5.98;48.88;100680.41;5026183;28;20397;-62
2022/01/29 03:58:26;;;;;;;;;;;;;;;5.95;46.46;100677.78;5033051;28;19924;-62
2022/01/29 04:00:51;;;;;;;;;;;;;;;6.00;51.78;100688.97;5025992;28;19920;-62
2022/01/29 04:03:16;;;;;;;;;;;;;;;6.14;51.28;100707.91;5026414;28;19913;-61
2022/01/29 04:05:42;;;;;;;;;;;;;;;6.22;48.58;100692.66;5025003;28;19917;-62
2022/01/29 04:08:14;;;;;;;;;;;;;;;5.97;46.89;100665.88;5025233;28;20298;-61
2022/01/29 04:10:39;;;;;;;;;;;;;;;6.30;42.65;100664.63;5025412;28;20019;-62
2022/01/29 04:13:06;;;;;;;;;;;;;;;6.06;43.21;100640.44;5026196;28;20419;-63
2022/01/29 04:15:31;;;;;;;;;;;;;;;6.33;44.83;100633.94;5025423;28;20433;-63
2022/01/29 04:17:57;;;;;;;;;;;;;;;6.10;47.62;100637.09;5025999;28;19921;-63
2022/01/29 04:20:22;;;;;;;;;;;;;;;5.96;50.87;100643.72;5025241;28;19921;-63
2022/01/29 04:22:47;;;;;;;;;;;;;;;6.32;51.54;100642.44;5026337;28;20360;-62
2022/01/29 04:25:13;;;;;;;;;;;;;;;6.12;49.63;100620.06;5024968;28;19966;-63
2022/01/29 04:27:44;;;;;;;;;;;;;;;6.23;47.90;100628.72;5025492;28;19921;-62
2022/01/29 04:30:15;;;;;;;;;;;;;;;5.93;49.69;100615.50;5024470;28;19955;-62
2022/01/29 04:35:06;;;;;;;;;;;;;;;6.35;45.66;100611.78;5025474;28;19967;-62
2022/01/29 04:37:31;;;;;;;;;;;;;;;6.14;43.88;100610.72;5024205;28;20390;-62
2022/01/29 04:39:56;;;;;;;;;;;;;;;6.24;43.79;100574.16;5024668;28;19928;-62
2022/01/29 04:42:21;;;;;;;;;;;;;;;6.17;42.72;100566.41;5024679;28;19928;-62
2022/01/29 04:44:47;;;;;;;;;;;;;;;6.21;44.25;100561.34;5024404;28;20438;-58
2022/01/29 04:47:12;;;;;;;;;;;;;;;6.12;45.04;100553.56;5025823;28;20008;-60
2022/01/29 04:49:37;;;;;;;;;;;;;;;6.17;41.15;100557.03;5025731;28;19923;-61
2022/01/29 04:52:03;;;;;;;;;;;;;;;6.22;48.91;100537.44;5025506;28;19960;-62
2022/01/29 04:54:28;;;;;;;;;;;;;;;6.14;50.97;100533.97;5024513;28;19921;-61
2022/01/29 04:56:53;;;;;;;;;;;;;;;6.09;55.26;100543.31;5025959;28;19924;-62
2022/01/29 04:59:19;;;;;;;;;;;;;;;6.16;53.39;100542.53;5024581;28;19921;-60
2022/01/29 05:01:44;;;;;;;;;;;;;;;6.39;56.98;100562.38;5025436;28;19921;-63
2022/01/29 05:04:09;;;;;;;;;;;;;;;5.96;58.59;100562.75;5025050;28;20387;-63
2022/01/29 05:06:34;;;;;;;;;;;;;;;6.05;60.58;100573.09;5024927;28;20016;-62
2022/01/29 05:09:00;;;;;;;;;;;;;;;5.92;67.54;100571.19;5023291;28;19929;-62
2022/01/29 05:11:25;;;;;;;;;;;;;;;6.22;67.78;100606.53;5024548;28;20036;-62
2022/01/29 05:13:50;;;;;;;;;;;;;;;6.13;63.20;100598.75;5024895;28;19929;-62
2022/01/29 05:27:45;;;;;;;;;;;;;;;5.93;65.78;100623.19;5003719;28;20035;-62
2022/01/29 05:30:10;;;;;;;;;;;;;;;6.17;67.62;100628.63;5002984;28;20445;-62
2022/01/29 05:32:36;;;;;;;;;;;;;;;6.13;69.87;100632.00;5005083;28;19960;-62
2022/01/29 05:35:01;;;;;;;;;;;;;;;6.34;66.34;100656.13;5003329;28;20394;-63
2022/01/29 05:37:26;;;;;;;;;;;;;;;5.95;65.81;100657.34;5003751;28;19921;-63
2022/01/29 05:39:52;;;;;;;;;;;;;;;6.18;64.99;100658.50;5006918;28;19976;-62
2022/01/29 05:42:17;;;;;;;;;;;;;;;6.16;63.76;100662.75;5007579;28;20011;-62
2022/01/29 05:44:42;;;;;;;;;;;;;;;6.15;63.81;100661.00;5006717;28;19928;-63
2022/01/29 05:47:08;;;;;;;;;;;;;;;6.49;61.47;100669.94;5007748;28;20004;-62
2022/01/29 05:49:33;;;;;;;;;;;;;;;6.12;64.11;100648.19;5008364;28;20000;-63
2022/01/29 05:51:58;;;;;;;;;;;;;;;6.38;62.27;100657.88;5008844;28;19917;-62
2022/01/29 05:54:24;;;;;;;;;;;;;;;6.13;63.72;100647.34;5005334;28;19921;-62
2022/01/29 05:56:49;;;;;;;;;;;;;;;6.37;59.92;100648.50;5026232;28;20381;-62
2022/01/29 05:59:14;;;;;;;;;;;;;;;6.26;62.42;100633.00;5028087;28;20281;-62
2022/01/29 06:01:39;;;;;;;;;;;;;;;6.15;63.96;100621.78;5026923;28;20219;-62
2022/01/29 06:04:06;;;;;;;;;;;;;;;6.21;66.52;100625.28;5027702;28;19921;-62
2022/01/29 06:06:31;;;;;;;;;;;;;;;6.14;66.00;100628.63;5028753;28;19940;-63
2022/01/29 06:08:56;;;;;;;;;;;;;;;6.47;61.88;100657.97;5027626;28;19917;-63
2022/01/29 06:11:22;;;;;;;;;;;;;;;6.20;60.10;100644.03;5027863;28;19920;-62
2022/01/29 06:13:47;;;;;;;;;;;;;;;6.45;60.25;100650.31;5031946;28;19956;-64
2022/01/29 06:16:12;;;;;;;;;;;;;;;6.43;57.07;100646.88;5033051;28;19919;-64
2022/01/29 06:18:38;;;;;;;;;;;;;;;6.49;57.46;100635.84;5032935;28;19975;-64
2022/01/29 06:21:04;;;;;;;;;;;;;;;6.44;58.37;100624.69;5033251;28;20341;-63
2022/01/29 06:23:34;;;;;;;;;;;;;;;6.40;60.00;100620.38;5033023;28;19963;-64
2022/01/29 06:26:00;;;;;;;;;;;;;;;6.14;60.80;100608.16;5047915;28;19951;-64
2022/01/29 06:28:25;;;;;;;;;;;;;;;6.39;59.25;100593.09;5033192;28;19917;-64
2022/01/29 06:30:50;;;;;;;;;;;;;;;6.59;61.09;100590.69;5032914;28;19935;-64
2022/01/29 06:33:16;;;;;;;;;;;;;;;6.30;62.38;100573.38;5032878;28;19998;-64
2022/01/29 06:35:42;;;;;;;;;;;;;;;6.31;58.07;100556.31;5032644;28;19924;-64
2022/01/29 06:38:08;;;;;;;;;;;;;;;6.65;59.63;100552.38;5047884;28;19971;-63
2022/01/29 06:40:34;;;;;;;;;;;;;;;6.14;60.16;100521.19;5032737;28;20391;-64
2022/01/29 06:43:01;;;;;;;;;;;;;;;6.19;62.73;100506.72;5032498;28;19974;-64
2022/01/29 06:45:27;;;;;;;;;;;;;;;6.43;60.44;100507.81;5032691;28;20365;-63
2022/01/29 06:47:52;;;;;;;;;;;;;;;6.41;59.16;100489.00;5032768;28;19960;-64
2022/01/29 06:50:17;;;;;;;;;;;;;;;6.37;62.18;100487.28;5032428;28;19924;-64
2022/01/29 06:52:42;;;;;;;;;;;;;;;6.43;62.79;100471.97;5032268;28;19920;-64
2022/01/29 06:55:08;;;;;;;;;;;;;;;6.39;62.50;100452.34;5032247;28;19928;-64
2022/01/29 06:57:33;;;;;;;;;;;;;;;6.52;64.75;100454.13;5032249;28;20382;-64
2022/01/29 06:59:59;;;;;;;;;;;;;;;6.44;61.83;100446.41;5032272;28;20379;-64
2022/01/29 07:02:24;;;;;;;;;;;;;;;6.26;62.94;100413.84;5027034;28;19913;-64
2022/01/29 07:04:49;;;;;;;;;;;;;;;6.43;60.82;100405.44;5012364;28;20264;-64
2022/01/29 07:07:15;;;;;;;;;;;;;;;6.58;59.94;100379.13;5012989;28;19975;-64
2022/01/29 07:09:40;;;;;;;;;;;;;;;6.38;61.83;100350.81;5012478;28;19917;-63
2022/01/29 07:12:10;;;;;;;;;;;;;;;6.37;65.40;100338.91;5012465;28;19921;-63
2022/01/29 07:14:38;;;;;;;;;;;;;;;6.55;63.25;100361.19;5012570;28;20398;-64
2022/01/29 07:17:05;;;;;;;;;;;;;;;6.63;63.58;100337.31;5012504;28;19913;-64
2022/01/29 07:19:30;;;;;;;;;;;;;;;6.50;64.63;100320.22;5026956;28;19925;-64
2022/01/29 07:21:56;;;;;;;;;;;;;;;6.71;62.14;100319.47;5012361;28;19914;-63
2022/01/29 07:24:21;;;;;;;;;;;;;;;6.55;62.94;100298.06;5012031;28;19914;-63
2022/01/29 07:26:46;;;;;;;;;;;;;;;6.58;62.98;100280.16;5011995;28;20390;-63
2022/01/29 07:29:11;;;;;;;;;;;;;;;6.40;62.46;100247.63;5011931;28;20041;-64
2022/01/29 07:31:39;;;;;;;;;;;;;;;6.41;64.87;100248.47;5012030;28;20084;-64
2022/01/29 07:34:04;;;;;;;;;;;;;;;6.77;63.76;100252.06;5011896;28;19917;-64
2022/01/29 07:36:29;;;;;;;;;;;;;;;6.63;63.09;100234.94;5011858;28;19913;-64
2022/01/29 07:38:54;;;;;;;;;;;;;;;6.56;66.65;100227.25;5011857;28;19920;-63
2022/01/29 07:41:20;;;;;;;;;;;;;;;6.61;65.67;100205.06;5011902;28;20355;-64
2022/01/29 07:43:45;;;;;;;;;;;;;;;6.76;65.39;100206.84;5011628;28;19952;-64
2022/01/29 07:46:10;;;;;;;;;;;;;;;6.81;63.63;100198.31;5011685;28;20012;-64
2022/01/29 07:48:36;;;;;;;;;;;;;;;7.02;64.61;100184.69;5026740;28;19917;-63
2022/01/29 07:51:01;;;;;;;;;;;;;;;6.81;66.88;100172.69;5011510;28;19921;-63
2022/01/29 07:53:26;;;;;;;;;;;;;;;6.99;65.05;100169.31;5011661;28;19913;-64
2022/01/29 07:55:52;;;;;;;;;;;;;;;6.77;64.91;100154.78;5012370;28;19918;-62
2022/01/29 07:58:17;;;;;;;;;;;;;;;6.81;66.37;100141.13;5027759;28;20275;-63
2022/01/29 08:00:42;;;;;;;;;;;;;;;6.97;67.34;100135.16;5025811;28;19999;-62
2022/01/29 08:03:07;;;;;;;;;;;;;;;6.97;66.52;100122.38;5027314;28;19924;-63
2022/01/29 08:05:34;;;;;;;;;;;;;;;6.89;69.41;100121.53;5027332;28;19948;-63
2022/01/29 08:08:00;;;;;;;;;;;;;;;7.17;66.20;100134.34;5044795;28;19913;-63
2022/01/29 08:10:25;;;;;;;;;;;;;;;7.16;66.93;100101.88;5028584;28;19923;-62
2022/01/29 08:12:50;;;;;;;;;;;;;;;7.12;67.58;100101.03;5028607;28;20131;-63
2022/01/29 08:15:16;;;;;;;;;;;;;;;6.98;67.94;100098.47;5027819;28;19921;-63
2022/01/29 08:17:41;;;;;;;;;;;;;;;7.11;70.96;100089.91;5027204;28;19933;-60
2022/01/29 08:20:07;;;;;;;;;;;;;;;6.96;69.67;100084.81;5029217;28;19949;-62
2022/01/29 08:22:32;;;;;;;;;;;;;;;7.22;69.02;100074.53;5030879;28;19917;-64
2022/01/29 08:24:57;;;;;;;;;;;;;;;7.41;69.80;100083.09;5025241;28;19917;-64
2022/01/29 08:27:23;;;;;;;;;;;;;;;7.28;70.43;100061.75;5022629;28;19917;-64
2022/01/29 08:29:48;;;;;;;;;;;;;;;6.98;73.40;100047.25;5046173;28;20301;-64
2022/01/29 08:32:13;;;;;;;;;;;;;;;7.26;76.35;100052.34;5030806;28;20429;-64
2022/01/29 08:34:40;;;;;;;;;;;;;;;7.40;73.36;100050.59;5030464;28;19917;-64
2022/01/29 08:37:05;;;;;;;;;;;;;;;7.23;76.27;100036.97;5030725;28;19919;-64
2022/01/29 08:39:31;;;;;;;;;;;;;;;7.11;78.05;100032.72;5030548;28;20365;-64
2022/01/29 08:41:57;;;;;;;;;;;;;;;7.28;74.66;100040.41;5027823;28;19963;-64
2022/01/29 08:44:22;;;;;;;;;;;;;;;7.27;76.70;100039.50;5025955;28;19999;-62
2022/01/29 08:46:47;;;;;;;;;;;;;;;7.63;75.80;100047.13;5025341;28;20362;-63
2022/01/29 08:49:13;;;;;;;;;;;;;;;7.61;71.88;100043.72;5027724;28;20008;-64
2022/01/29 08:51:38;;;;;;;;;;;;;;;7.34;75.09;100025.00;5030469;28;19917;-64
2022/01/29 08:54:03;;;;;;;;;;;;;;;7.36;77.20;100022.44;5021418;28;19917;-64
2022/01/29 08:56:29;;;;;;;;;;;;;;;7.31;75.61;100025.84;5010779;28;19957;-63
2022/01/29 08:58:54;;;;;;;;;;;;;;;7.44;76.71;100030.97;5026116;28;19913;-64
2022/01/29 09:01:19;;;;;;;;;;;;;;;7.27;77.23;100036.97;5010778;28;19957;-64
2022/01/29 09:03:45;;;;;;;;;;;;;;;7.48;75.65;100038.63;5010851;28;19964;-64
2022/01/29 09:06:10;;;;;;;;;;;;;;;7.46;77.38;100032.66;5010892;28;20495;-63
2022/01/29 09:08:35;;;;;;;;;;;;;;;7.47;78.60;100036.91;5030515;28;20402;-64
2022/01/29 09:11:01;;;;;;;;;;;;;;;7.47;79.16;100031.78;5030468;28;20099;-64
2022/01/29 09:13:26;;;;;;;;;;;;;;;7.62;78.96;100030.03;5032356;28;19928;-64
2022/01/29 09:15:52;;;;;;;;;;;;;;;7.64;77.79;100023.19;5034399;28;19918;-64
2022/01/29 09:18:17;;;;;;;;;;;;;;;7.66;77.29;100013.78;5034043;28;19921;-64
2022/01/29 09:20:43;;;;;;;;;;;;;;;7.53;77.49;100011.28;5034204;28;20008;-63
2022/01/29 09:23:11;;;;;;;;;;;;;;;7.72;77.19;100006.91;5034011;28;19953;-63
2022/01/29 09:25:36;;;;;;;;;;;;;;;7.40;77.66;99996.78;5034321;28;20344;-64
2022/01/29 09:28:03;;;;;;;;;;;;;;;7.66;76.96;100006.09;5033857;28;20007;-64
2022/01/29 09:30:28;;;;;;;;;;;;;;;7.34;77.78;99978.88;5033967;28;19920;-64
2022/01/29 09:32:54;;;;;;;;;;;;;;;7.78;76.70;99989.78;5034223;28;19944;-64
2022/01/29 09:35:19;;;;;;;;;;;;;;;7.81;78.59;99984.69;5033884;28;19957;-64
2022/01/29 09:37:44;;;;;;;;;;;;;;;7.85;76.45;99976.97;5034229;28;19919;-64
2022/01/29 09:40:10;;;;;;;;;;;;;;;7.95;76.99;99964.94;5033896;28;19920;-64
2022/01/29 09:42:35;;;;;;;;;;;;;;;7.72;75.68;99959.94;5033837;28;19993;-64
2022/01/29 09:45:01;;;;;;;;;;;;;;;7.73;77.72;99959.94;5032413;28;20283;-63
2022/01/29 09:47:26;;;;;;;;;;;;;;;7.72;76.53;99957.38;5032493;28;20299;-63
2022/01/29 09:49:52;;;;;;;;;;;;;;;7.67;80.40;99957.38;5033887;28;19978;-64
2022/01/29 09:52:18;;;;;;;;;;;;;;;7.64;80.77;99972.78;5030404;28;20378;-64
2022/01/29 09:54:43;;;;;;;;;;;;;;;7.91;79.00;99976.06;5026290;28;19928;-63
2022/01/29 09:57:09;;;;;;;;;;;;;;;8.05;81.36;99978.53;5024165;28;19940;-64
2022/01/29 09:59:34;;;;;;;;;;;;;;;7.73;83.69;99966.75;5025987;28;19932;-63
2022/01/29 10:01:59;;;;;;;;;;;;;;;7.66;82.55;99965.94;5022605;28;20394;-64
2022/01/29 10:04:25;;;;;;;;;;;;;;;7.58;81.82;99977.09;5026898;28;19921;-63
2022/01/29 10:07:11;;;;;;;;;;;;;;;8.07;82.29;99994.78;5026781;28;20686;-63
2022/01/29 10:09:36;;;;;;;;;;;;;;;7.87;81.96;99979.53;5026484;28;19975;-63
2022/01/29 10:12:16;;;;;;;;;;;;;;;7.86;81.62;99978.66;5025954;28;19968;-64
2022/01/29 10:14:46;;;;;;;;;;;;;;;8.11;83.08;99983.66;5026651;28;19921;-63
2022/01/29 10:17:11;;;;;;;;;;;;;;;8.18;83.88;99964.78;5026156;28;19913;-63
2022/01/29 10:19:36;;;;;;;;;;;;;;;8.02;79.63;99958.03;5025472;28;20438;-63
2022/01/29 10:22:02;;;;;;;;;;;;;;;8.13;81.75;99951.97;5025853;28;19967;-64
2022/01/29 10:24:27;;;;;;;;;;;;;;;7.90;86.81;99943.59;5026571;28;19917;-63
2022/01/29 10:26:53;;;;;;;;;;;;;;;7.97;84.65;99940.13;5026598;28;19952;-63
2022/01/29 10:29:19;;;;;;;;;;;;;;;7.94;84.71;99946.13;5026641;28;19921;-64
2022/01/29 10:31:45;;;;;;;;;;;;;;;8.28;82.84;99955.28;5024883;28;20348;-63
2022/01/29 10:34:26;;;;;;;;;;;;;;;8.11;82.94;99952.84;5025895;28;20367;-63
2022/01/29 10:37:10;;;;;;;;;;;;;;;8.04;85.04;99940.94;5025947;28;20371;-64
2022/01/29 10:39:35;;;;;;;;;;;;;;;7.97;86.14;99938.41;5026916;28;19928;-63
2022/01/29 10:42:12;;;;;;;;;;;;;;;8.12;86.91;99946.88;5025700;28;19913;-64
2022/01/29 10:44:44;;;;;;;;;;;;;;;8.02;84.88;99950.34;5025099;28;20310;-63
2022/01/29 10:47:10;;;;;;;;;;;;;;;8.18;83.48;99951.94;5025834;28;19924;-63
2022/01/29 10:49:37;;;;;;;;;;;;;;;8.17;87.89;99937.44;5024919;28;19921;-64
2022/01/29 10:52:06;;;;;;;;;;;;;;;7.93;83.63;99923.03;5025603;28;20008;-63
2022/01/29 10:54:33;;;;;;;;;;;;;;;8.07;81.35;99940.91;5024720;28;19921;-64
2022/01/29 10:57:01;;;;;;;;;;;;;;;8.14;83.63;99922.03;5024906;28;20307;-63
2022/01/29 10:59:28;;;;;;;;;;;;;;;8.53;82.28;99914.91;5029651;28;19913;-63
2022/01/29 11:01:55;;;;;;;;;;;;;;;8.51;82.36;99899.53;5029523;28;19920;-63
2022/01/29 11:04:20;;;;;;;;;;;;;;;8.38;81.01;99867.94;5029154;28;19918;-62
2022/01/29 11:06:47;;;;;;;;;;;;;;;8.63;80.79;99875.47;5028742;28;19920;-63
2022/01/29 11:09:13;;;;;;;;;;;;;;;8.48;82.76;99844.78;5027259;28;19917;-63
2022/01/29 11:11:41;;;;;;;;;;;;;;;8.44;78.75;99838.88;5027531;28;20810;-63
2022/01/29 11:14:07;;;;;;;;;;;;;;;8.19;81.03;99825.38;5029190;28;19963;-63
2022/01/29 11:16:32;;;;;;;;;;;;;;;8.34;80.04;99817.50;5027281;28;19921;-63
2022/01/29 11:18:58;;;;;;;;;;;;;;;8.59;78.61;99817.28;5028901;28;19936;-64
2022/01/29 11:21:24;;;;;;;;;;;;;;;8.61;79.44;99800.16;5028949;28;20364;-63
2022/01/29 11:23:49;;;;;;;;;;;;;;;8.30;80.63;99784.19;5026305;28;19975;-63
2022/01/29 11:26:14;;;;;;;;;;;;;;;8.59;78.79;99791.63;5025844;28;20294;-63
2022/01/29 11:28:40;;;;;;;;;;;;;;;8.66;79.42;99762.44;5033463;28;19917;-63
2022/01/29 11:31:14;;;;;;;;;;;;;;;8.61;76.37;99769.34;5027093;28;19996;-63
2022/01/29 11:33:58;;;;;;;;;;;;;;;8.54;74.74;99767.72;5024492;28;20016;-63
2022/01/29 11:36:42;;;;;;;;;;;;;;;8.58;78.82;99759.97;5041316;28;19925;-62
2022/01/29 11:39:20;;;;;;;;;;;;;;;8.48;79.41;99762.66;5027962;28;19919;-63
2022/01/29 11:41:45;;;;;;;;;;;;;;;8.32;80.36;99752.50;5025620;28;19913;-63
2022/01/29 11:44:40;;;;;;;;;;;;;;;8.76;82.24;99756.34;5027204;28;20298;-63
2022/01/29 11:47:25;;;;;;;;;;;;;;;8.62;81.85;99757.34;5025814;28;19968;-63
2022/01/29 11:49:50;;;;;;;;;;;;;;;8.56;84.45;99766.00;5026223;28;20016;-63
2022/01/29 11:52:22;;;;;;;;;;;;;;;8.38;84.14;99764.44;5026864;28;20008;-63
2022/01/29 11:54:58;;;;;;;;;;;;;;;8.31;85.45;99766.22;5025193;28;20009;-63
2022/01/29 11:57:24;;;;;;;;;;;;;;;8.58;85.99;99780.50;5026532;28;20374;-63
2022/01/29 11:59:49;;;;;;;;;;;;;;;8.40;86.78;99779.84;5025347;28;19948;-63
2022/01/29 12:02:14;;;;;;;;;;;;;;;8.59;85.89;99789.06;5025977;28;19917;-63
2022/01/29 12:04:54;;;;;;;;;;;;;;;8.66;85.91;99794.97;5027887;28;20341;-63
2022/01/29 12:07:29;;;;;;;;;;;;;;;8.46;87.34;99775.53;5027700;28;19964;-63
2022/01/29 12:09:58;;;;;;;;;;;;;;;8.57;87.06;99790.78;5026101;28;19917;-64
2022/01/29 12:12:25;;;;;;;;;;;;;;;8.65;89.73;99785.59;5041424;28;20012;-61
2022/01/29 12:14:52;;;;;;;;;;;;;;;8.54;92.59;99794.25;5027649;28;19967;-62
2022/01/29 12:17:34;;;;;;;;;;;;;;;8.26;91.01;99819.31;5025658;28;19923;-62
2022/01/29 12:20:01;;;;;;;;;;;;;;;8.65;89.77;99818.97;5027116;28;19929;-63
2022/01/29 12:22:26;;;;;;;;;;;;;;;8.57;93.15;99812.16;5027746;28;19956;-63
2022/01/29 12:24:53;;;;;;;;;;;;;;;8.52;92.08;99813.09;5027677;28;20357;-63
2022/01/29 12:27:19;;;;;;;;;;;;;;;8.37;88.42;99807.22;5028195;28;19928;-62
2022/01/29 12:29:44;;;;;;;;;;;;;;;8.44;87.73;99823.47;5030223;28;19917;-63
2022/01/29 12:32:10;;;;;;;;;;;;;;;8.43;87.20;99831.16;5029729;28;20367;-63
2022/01/29 12:34:35;;;;;;;;;;;;;;;8.85;82.92;99824.72;5026457;28;19971;-62
2022/01/29 12:37:08;;;;;;;;;;;;;;;8.49;84.05;99823.41;5027396;28;19924;-63
2022/01/29 12:39:33;;;;;;;;;;;;;;;8.30;85.42;99825.25;5022555;28;19921;-63
2022/01/29 12:42:12;;;;;;;;;;;;;;;8.42;83.02;99832.03;5027156;28;19976;-63
2022/01/29 12:45:00;;;;;;;;;;;;;;;8.54;82.75;99849.88;5039569;28;19913;-63
2022/01/29 12:47:29;;;;;;;;;;;;;;;8.38;82.15;99841.44;5030959;28;19979;-63
2022/01/29 12:49:54;;;;;;;;;;;;;;;8.78;80.44;99833.34;5031652;28;19920;-63
2022/01/29 12:52:20;;;;;;;;;;;;;;;8.52;80.70;99816.50;5028419;28;19914;-63
2022/01/29 12:54:59;;;;;;;;;;;;;;;8.66;81.52;99793.25;5035343;28;19963;-63
2022/01/29 12:57:24;;;;;;;;;;;;;;;8.60;81.08;99793.34;5032594;28;19913;-63
2022/01/29 12:59:50;;;;;;;;;;;;;;;8.77;82.36;99781.13;5030394;28;20636;-62